Aktuální počasí v Česku a ve světě - METAR

Seznam meteostanic umístěných nejčasteji na letišti v ČR a ve světě

Vyhledat místa podle abecedy:
A B C D E F G H I J K L M N O P Q R S T U V W X Y Z

Filtrovat:

ID stanice:
a/nebo
Název místa (fulltext):
 
Místo (ID)Naposledy načteno 
Zadar (LDZD) 01.12.2020 05:00 UTC Zobrazit METAR
LDZD 010500Z 12002KT CAVOK M02/M06 Q1019 NOSIG
Zagreb (LDZA) 01.12.2020 05:00 UTC Zobrazit METAR
LDZA 010500Z VRB01KT 3500 BR SCT003 M07/M08 Q1022 TEMPO 1000 BCFG BKN002
Zaragoza (LEZG) 01.12.2020 05:00 UTC Zobrazit METAR
LEZG 010500Z 28010KT CAVOK 07/04 Q1023
Zhezkazgan (UAKD) Zatím nenačteno  
Zurich (LSZH) 01.12.2020 04:50 UTC Zobrazit METAR
LSZH 010450Z 16006KT 2000 SN SCT003 BKN007 00/00 Q1017 TEMPO 0600 BKN004
Reklama


Další české internetové stránky (nejen) o počasí najdete v katalogu TOPlist - weby o počasí nebo vyhledejte na internetu, co jste tu na 🌞 Slunečnu ⛅ zatím nenašli:
⭐ Přidat Slunečno.cz do oblíbených | 🏠 Nastavit Slunečno.cz jako HOMEPAGE

⬆️ Posunout stránku nahoru ⬆️
Reklama